createdAt,value
2018-12-22T00:02:28.936Z,76.1
2018-12-22T00:07:36.019Z,77
2018-12-22T00:12:44.478Z,73.2
2018-12-22T00:17:51.816Z,73.1
2018-12-22T00:23:00.440Z,72.2
2018-12-22T00:28:08.091Z,72
2018-12-22T00:33:16.269Z,71.2
2018-12-22T00:38:24.422Z,70.5
2018-12-22T00:43:33.643Z,69.6
2018-12-22T00:48:42.268Z,69
2018-12-22T00:53:51.136Z,65.9
2018-12-22T00:58:59.401Z,67.6
2018-12-22T01:04:07.634Z,66.2
2018-12-22T01:09:16.090Z,65.1
2018-12-22T01:14:24.300Z,65.7
2018-12-22T01:19:32.799Z,66.7
2018-12-22T01:24:41.615Z,61.1
2018-12-22T01:29:50.369Z,61.6
2018-12-22T01:34:59.020Z,61.8
2018-12-22T01:40:08.024Z,61.7
2018-12-22T01:45:16.240Z,61.1
2018-12-22T01:50:24.281Z,58
2018-12-22T01:55:33.264Z,58.5
2018-12-22T02:00:41.700Z,58.6
2018-12-22T02:05:50.723Z,55.4
2018-12-22T02:10:58.950Z,55.6
2018-12-22T02:16:07.791Z,55.1
2018-12-22T02:21:16.552Z,54.7
2018-12-22T02:26:25.165Z,53.3
2018-12-22T02:31:33.918Z,54.3
2018-12-22T02:36:42.959Z,55.1
2018-12-22T02:41:51.808Z,53.7
2018-12-22T02:47:00.748Z,55
2018-12-22T02:52:09.610Z,49.8
2018-12-22T02:57:18.476Z,50.8
2018-12-22T03:02:27.076Z,51.4
2018-12-22T03:07:35.133Z,49.7
2018-12-22T03:12:44.180Z,52.4
2018-12-22T03:17:50.928Z,47.8
2018-12-22T03:23:00.331Z,48.6
2018-12-22T03:28:08.543Z,46.9
2018-12-22T03:33:17.196Z,44.9
2018-12-22T03:38:25.736Z,45.1
2018-12-22T03:43:34.433Z,43.7
2018-12-22T03:48:43.308Z,45.2
2018-12-22T03:53:51.536Z,44
2018-12-22T03:58:59.552Z,45.4
2018-12-22T04:04:08.431Z,43.6
2018-12-22T04:09:17.038Z,42.1
2018-12-22T04:14:25.900Z,41.3
2018-12-22T04:19:34.009Z,41.6
2018-12-22T04:24:43.051Z,42.6
2018-12-22T04:29:51.100Z,39.4
2018-12-22T04:34:59.977Z,40.5
2018-12-22T04:40:00.764Z,51.9
2018-12-22T04:45:09.027Z,46.4
2018-12-22T04:50:16.011Z,40.5
2018-12-22T04:55:24.200Z,43.9
2018-12-22T06:47:58.585Z,34.3
2018-12-22T06:52:47.703Z,33
2018-12-22T06:57:56.634Z,27.1
2018-12-22T07:03:04.748Z,29.1
2018-12-22T07:08:13.863Z,26.6
2018-12-22T07:13:22.828Z,27.4
2018-12-22T07:18:31.340Z,27.1
2018-12-22T07:23:39.759Z,24.1
2018-12-22T07:28:47.950Z,25.1
2018-12-22T07:33:57.024Z,24.6
2018-12-22T07:39:05.299Z,28.8
2018-12-22T07:44:12.314Z,24.2
2018-12-22T07:49:21.570Z,24.8
2018-12-22T07:54:29.752Z,23.4
2018-12-22T07:59:38.129Z,31.5
2018-12-22T08:04:46.928Z,24.7
2018-12-22T08:09:55.584Z,23.2
2018-12-22T08:15:03.863Z,26.7
2018-12-22T08:20:13.266Z,23.3
2018-12-22T08:25:21.872Z,25.6
2018-12-22T08:30:30.992Z,24.6
2018-12-22T08:35:39.611Z,26.2
2018-12-22T08:40:47.789Z,25.5
2018-12-22T08:45:56.562Z,28.3
2018-12-22T08:51:05.974Z,27.4
2018-12-22T08:56:14.159Z,25.4
2018-12-22T09:01:22.612Z,26.7
2018-12-22T09:06:30.856Z,25.4
2018-12-22T09:11:38.457Z,25.2
2018-12-22T09:16:45.897Z,26.9
2018-12-22T09:21:54.074Z,23.4
2018-12-22T09:27:02.360Z,28
2018-12-22T09:32:11.273Z,23.6
2018-12-22T09:37:20.499Z,23.7
2018-12-22T09:42:29.308Z,23.5
2018-12-22T09:47:38.031Z,26.6
2018-12-22T09:52:46.255Z,25.6
2018-12-22T09:57:54.379Z,39.9
2018-12-22T10:03:02.841Z,48.1
2018-12-22T10:08:11.704Z,39.4
2018-12-22T10:13:21.199Z,37.6
2018-12-22T10:18:30.541Z,46.3
2018-12-22T10:23:38.983Z,58.7
2018-12-22T10:28:46.487Z,60.3
2018-12-22T10:33:54.851Z,59.8
2018-12-22T10:39:03.056Z,47.9
2018-12-22T10:44:11.135Z,49.2
2018-12-22T10:49:19.311Z,48.5
2018-12-22T10:54:27.943Z,41
2018-12-22T10:59:35.186Z,41
2018-12-22T11:04:43.378Z,41.1
2018-12-22T11:09:51.569Z,33.4
2018-12-22T11:15:00.625Z,16.3
2018-12-22T11:20:09.511Z,14.3
2018-12-22T11:25:17.895Z,14.8
2018-12-22T11:30:27.056Z,13.3
2018-12-22T11:35:35.444Z,12.3
2018-12-22T11:40:42.670Z,12
2018-12-22T11:45:51.383Z,12.8
2018-12-22T11:50:59.546Z,13.3
2018-12-22T11:56:07.669Z,14.8
2018-12-22T12:01:16.362Z,19
2018-12-22T12:06:25.155Z,16.7
2018-12-22T12:11:33.968Z,14.6
2018-12-22T12:16:43.196Z,12.1
2018-12-22T12:21:53.082Z,12.4
2018-12-22T12:27:01.897Z,12.5
2018-12-22T12:32:10.605Z,11.1
2018-12-22T12:37:19.200Z,10.9
2018-12-22T12:42:28.148Z,13.7
2018-12-22T12:47:36.356Z,13.7
2018-12-22T12:52:44.783Z,13.3
2018-12-22T12:57:53.396Z,11.9
2018-12-22T13:03:02.318Z,11.9
2018-12-22T13:08:10.440Z,12.7
2018-12-22T13:13:19.438Z,12
2018-12-22T13:18:28.041Z,15.9
2018-12-22T13:23:36.841Z,16
2018-12-22T13:28:44.072Z,18.8
2018-12-22T13:33:53.174Z,15.7
2018-12-22T13:39:01.317Z,16.8
2018-12-22T13:44:10.290Z,19.1
2018-12-22T13:49:19.940Z,17.9
2018-12-22T13:54:29.560Z,21.6
2018-12-22T13:59:38.213Z,16.4
2018-12-22T14:04:46.795Z,17.1
2018-12-22T14:09:55.813Z,18.8
2018-12-22T14:15:03.952Z,19.6
2018-12-22T14:20:11.464Z,25.9
2018-12-22T14:25:20.382Z,30
2018-12-22T14:30:29.477Z,17.6
2018-12-22T14:35:38.043Z,22.2
2018-12-22T14:40:47.135Z,17.2
2018-12-22T14:45:55.814Z,25.2
2018-12-22T14:51:04.620Z,19.9
2018-12-22T14:56:12.927Z,16.7
2018-12-22T15:01:19.801Z,15.3
2018-12-22T15:06:28.377Z,17.6
2018-12-22T15:11:37.100Z,24.9
2018-12-22T15:16:48.307Z,19.3
2018-12-22T15:21:46.542Z,36.4
2018-12-22T15:26:55.340Z,20.3
2018-12-22T15:32:04.292Z,17.1
2018-12-22T15:37:13.204Z,30.3
2018-12-22T15:42:21.976Z,20.5
2018-12-22T15:47:30.966Z,20.4
2018-12-22T15:52:39.894Z,21.4
2018-12-22T15:57:49.041Z,19.3
2018-12-22T16:02:58.072Z,16
2018-12-22T16:08:07.148Z,29.9
2018-12-22T16:13:15.508Z,32.8
2018-12-22T16:18:23.954Z,20.8
2018-12-22T16:23:32.401Z,22.1
2018-12-22T16:28:41.052Z,21.1
2018-12-22T16:33:47.914Z,23.8
2018-12-22T16:38:57.429Z,22.9
2018-12-22T16:44:05.511Z,17.4
2018-12-22T16:49:14.160Z,14.9
2018-12-22T16:54:23.274Z,17
2018-12-22T16:59:31.345Z,17.3
2018-12-22T17:04:38.345Z,17.7
2018-12-22T17:09:47.168Z,17
2018-12-22T17:14:56.011Z,14.7
2018-12-22T17:20:05.171Z,15.8
2018-12-22T17:25:13.730Z,14
2018-12-22T17:30:22.682Z,14
2018-12-22T17:35:32.523Z,12.3
2018-12-22T17:40:41.432Z,10.8
2018-12-22T17:45:50.322Z,13.7
2018-12-22T17:50:58.597Z,13.4
2018-12-22T17:56:07.479Z,17
2018-12-22T18:01:16.339Z,30
2018-12-22T18:06:24.561Z,27.7
2018-12-22T18:11:32.994Z,16.7
2018-12-22T18:16:41.160Z,21.4
2018-12-22T18:21:50.428Z,14.2
2018-12-22T18:26:57.791Z,20.1
2018-12-22T18:32:06.072Z,15.9
2018-12-22T18:37:14.132Z,17.2
2018-12-22T18:42:22.522Z,17.3
2018-12-22T18:47:31.204Z,13.6
2018-12-22T18:52:39.513Z,25.9
2018-12-22T18:57:47.605Z,6.8
2018-12-22T19:02:55.786Z,5.6
2018-12-22T19:08:05.064Z,5.8
2018-12-22T19:13:12.214Z,5.8
2018-12-22T19:18:21.934Z,5.3
2018-12-22T19:23:30.932Z,9.4
2018-12-22T19:28:39.020Z,6
2018-12-22T19:33:53.384Z,8.1
2018-12-22T19:38:52.473Z,11.4
2018-12-22T19:44:01.217Z,9.7
2018-12-22T19:49:09.452Z,8
2018-12-22T19:54:17.501Z,9.6
2018-12-22T19:59:25.760Z,8
2018-12-22T20:04:34.356Z,6.8
2018-12-22T20:09:43.203Z,7.8
2018-12-22T20:14:50.283Z,7.2
2018-12-22T20:19:58.472Z,9.6
2018-12-22T20:25:07.535Z,4.8
2018-12-22T20:30:14.659Z,6.3
2018-12-22T20:35:23.564Z,5.4
2018-12-22T20:40:31.851Z,11.7
2018-12-22T20:45:41.017Z,8.9
2018-12-22T20:50:49.582Z,11.4
2018-12-22T20:55:57.850Z,6.1
2018-12-22T21:01:06.151Z,5.5
2018-12-22T21:06:14.631Z,4.8
2018-12-22T21:11:23.526Z,11.4
2018-12-22T21:16:31.710Z,6.6
2018-12-22T21:21:40.717Z,9.7
2018-12-22T21:27:23.942Z,12.1
2018-12-22T21:32:22.559Z,11
2018-12-22T21:37:31.791Z,9
2018-12-22T21:42:40.256Z,11.6
2018-12-22T21:47:48.843Z,12.5
2018-12-22T21:52:57.645Z,9.9
2018-12-22T21:58:06.005Z,10.4
2018-12-22T22:03:15.088Z,9.8
2018-12-22T22:08:24.066Z,18.3
2018-12-22T22:13:32.316Z,15.6
2018-12-22T22:18:41.004Z,9.1
2018-12-22T22:23:50.119Z,12.9
2018-12-22T22:28:58.926Z,10.4
2018-12-22T22:34:07.793Z,7.6
2018-12-22T22:39:16.500Z,16.4
2018-12-22T22:44:24.562Z,12.4
2018-12-22T22:49:33.449Z,11.9
2018-12-22T22:54:40.610Z,9.1
2018-12-22T22:59:49.390Z,12.4
2018-12-22T23:04:58.205Z,9.3
2018-12-22T23:10:06.999Z,11
2018-12-22T23:15:15.476Z,9.9
2018-12-22T23:20:24.438Z,7.6
2018-12-22T23:25:31.669Z,8
2018-12-22T23:30:40.572Z,8.4
2018-12-22T23:35:48.971Z,7.6
2018-12-22T23:40:57.214Z,7.9
2018-12-22T23:46:06.182Z,6.8
2018-12-22T23:51:14.733Z,6.7
2018-12-22T23:56:23.112Z,6.5
